sensor_id;sensor_type;location;lat;lon;timestamp;P1;durP1;ratioP1;P2;durP2;ratioP2
42912;SDS011;50720;54.324;18.558;2023-03-09T00:00:34;30.17;;;14.50;;
42912;SDS011;50720;54.324;18.558;2023-03-09T00:03:20;48.20;;;17.17;;
42912;SDS011;50720;54.324;18.558;2023-03-09T00:05:53;40.47;;;16.27;;
42912;SDS011;50720;54.324;18.558;2023-03-09T00:08:23;43.83;;;17.75;;
42912;SDS011;50720;54.324;18.558;2023-03-09T00:10:57;41.10;;;16.65;;
42912;SDS011;50720;54.324;18.558;2023-03-09T00:13:26;42.67;;;17.27;;
42912;SDS011;50720;54.324;18.558;2023-03-09T00:15:56;41.53;;;17.00;;
42912;SDS011;50720;54.324;18.558;2023-03-09T00:18:35;40.92;;;17.15;;
42912;SDS011;50720;54.324;18.558;2023-03-09T00:21:07;39.83;;;16.90;;
42912;SDS011;50720;54.324;18.558;2023-03-09T00:23:58;45.67;;;17.27;;
42912;SDS011;50720;54.324;18.558;2023-03-09T00:26:28;47.28;;;21.20;;
42912;SDS011;50720;54.324;18.558;2023-03-09T00:28:57;51.97;;;19.95;;
42912;SDS011;50720;54.324;18.558;2023-03-09T00:31:27;52.63;;;20.73;;
42912;SDS011;50720;54.324;18.558;2023-03-09T00:33:57;48.33;;;20.27;;
42912;SDS011;50720;54.324;18.558;2023-03-09T00:36:29;46.55;;;20.50;;
42912;SDS011;50720;54.324;18.558;2023-03-09T00:38:59;47.38;;;20.48;;
42912;SDS011;50720;54.324;18.558;2023-03-09T00:41:29;54.17;;;22.73;;
42912;SDS011;50720;54.324;18.558;2023-03-09T00:43:59;51.60;;;23.70;;
42912;SDS011;50720;54.324;18.558;2023-03-09T00:46:31;51.55;;;23.60;;
42912;SDS011;50720;54.324;18.558;2023-03-09T00:49:01;50.72;;;23.40;;
42912;SDS011;50720;54.324;18.558;2023-03-09T00:51:35;50.83;;;24.35;;
42912;SDS011;50720;54.324;18.558;2023-03-09T00:56:34;48.00;;;22.13;;
42912;SDS011;50720;54.324;18.558;2023-03-09T00:59:04;54.95;;;22.08;;
42912;SDS011;50720;54.324;18.558;2023-03-09T01:01:34;54.27;;;23.17;;
42912;SDS011;50720;54.324;18.558;2023-03-09T01:04:04;61.13;;;24.48;;
42912;SDS011;50720;54.324;18.558;2023-03-09T01:09:05;60.63;;;24.83;;
42912;SDS011;50720;54.324;18.558;2023-03-09T01:11:37;60.17;;;25.60;;
42912;SDS011;50720;54.324;18.558;2023-03-09T01:14:06;56.35;;;25.17;;
42912;SDS011;50720;54.324;18.558;2023-03-09T01:16:36;63.55;;;25.23;;
42912;SDS011;50720;54.324;18.558;2023-03-09T01:19:06;53.72;;;24.13;;
42912;SDS011;50720;54.324;18.558;2023-03-09T01:21:38;56.83;;;23.17;;
42912;SDS011;50720;54.324;18.558;2023-03-09T01:24:07;58.50;;;26.15;;
42912;SDS011;50720;54.324;18.558;2023-03-09T01:26:37;52.42;;;21.70;;
42912;SDS011;50720;54.324;18.558;2023-03-09T01:29:06;59.58;;;22.55;;
42912;SDS011;50720;54.324;18.558;2023-03-09T01:31:36;50.60;;;23.60;;
42912;SDS011;50720;54.324;18.558;2023-03-09T01:34:06;50.75;;;19.10;;
42912;SDS011;50720;54.324;18.558;2023-03-09T01:36:40;54.15;;;21.27;;
42912;SDS011;50720;54.324;18.558;2023-03-09T01:39:10;56.90;;;23.77;;
42912;SDS011;50720;54.324;18.558;2023-03-09T01:41:40;55.77;;;25.70;;
42912;SDS011;50720;54.324;18.558;2023-03-09T01:44:10;57.30;;;22.08;;
42912;SDS011;50720;54.324;18.558;2023-03-09T01:46:48;56.75;;;22.70;;
42912;SDS011;50720;54.324;18.558;2023-03-09T01:49:24;58.13;;;24.13;;
42912;SDS011;50720;54.324;18.558;2023-03-09T01:52:07;45.53;;;20.58;;
42912;SDS011;50720;54.324;18.558;2023-03-09T01:54:42;48.20;;;20.45;;
42912;SDS011;50720;54.324;18.558;2023-03-09T01:57:19;50.28;;;22.15;;
42912;SDS011;50720;54.324;18.558;2023-03-09T01:59:53;51.72;;;20.23;;
42912;SDS011;50720;54.324;18.558;2023-03-09T02:02:26;46.90;;;20.48;;
42912;SDS011;50720;54.324;18.558;2023-03-09T02:04:59;49.47;;;19.15;;
42912;SDS011;50720;54.324;18.558;2023-03-09T02:07:34;56.90;;;22.92;;
42912;SDS011;50720;54.324;18.558;2023-03-09T02:10:07;46.45;;;20.98;;
42912;SDS011;50720;54.324;18.558;2023-03-09T02:12:42;51.28;;;21.45;;
42912;SDS011;50720;54.324;18.558;2023-03-09T02:15:14;53.13;;;22.35;;
42912;SDS011;50720;54.324;18.558;2023-03-09T02:17:44;64.22;;;23.33;;
42912;SDS011;50720;54.324;18.558;2023-03-09T02:20:15;58.42;;;21.48;;
42912;SDS011;50720;54.324;18.558;2023-03-09T02:22:51;71.13;;;24.90;;
42912;SDS011;50720;54.324;18.558;2023-03-09T02:25:23;67.32;;;25.23;;
42912;SDS011;50720;54.324;18.558;2023-03-09T02:27:58;55.10;;;24.13;;
42912;SDS011;50720;54.324;18.558;2023-03-09T02:30:30;51.83;;;23.95;;
42912;SDS011;50720;54.324;18.558;2023-03-09T02:33:04;59.28;;;26.73;;
42912;SDS011;50720;54.324;18.558;2023-03-09T02:35:36;64.93;;;24.25;;
42912;SDS011;50720;54.324;18.558;2023-03-09T02:38:09;60.97;;;24.77;;
42912;SDS011;50720;54.324;18.558;2023-03-09T02:40:40;63.83;;;26.48;;
42912;SDS011;50720;54.324;18.558;2023-03-09T02:43:12;59.63;;;25.13;;
42912;SDS011;50720;54.324;18.558;2023-03-09T02:45:44;61.20;;;25.35;;
42912;SDS011;50720;54.324;18.558;2023-03-09T02:48:14;65.85;;;26.85;;
42912;SDS011;50720;54.324;18.558;2023-03-09T02:50:44;64.20;;;27.90;;
42912;SDS011;50720;54.324;18.558;2023-03-09T02:53:14;59.22;;;26.08;;
42912;SDS011;50720;54.324;18.558;2023-03-09T02:55:43;59.15;;;24.52;;
42912;SDS011;50720;54.324;18.558;2023-03-09T02:58:15;59.83;;;26.07;;
42912;SDS011;50720;54.324;18.558;2023-03-09T03:03:14;63.65;;;27.13;;
42912;SDS011;50720;54.324;18.558;2023-03-09T03:05:45;65.25;;;25.83;;
42912;SDS011;50720;54.324;18.558;2023-03-09T03:08:16;62.93;;;27.07;;
42912;SDS011;50720;54.324;18.558;2023-03-09T03:11:02;63.20;;;28.25;;
42912;SDS011;50720;54.324;18.558;2023-03-09T03:16:03;58.67;;;24.97;;
42912;SDS011;50720;54.324;18.558;2023-03-09T03:18:33;56.70;;;25.05;;
42912;SDS011;50720;54.324;18.558;2023-03-09T03:21:03;63.75;;;26.40;;
42912;SDS011;50720;54.324;18.558;2023-03-09T03:23:33;67.00;;;29.13;;
42912;SDS011;50720;54.324;18.558;2023-03-09T03:26:03;70.35;;;25.33;;
42912;SDS011;50720;54.324;18.558;2023-03-09T03:28:35;66.28;;;24.98;;
42912;SDS011;50720;54.324;18.558;2023-03-09T03:31:05;57.58;;;23.77;;
42912;SDS011;50720;54.324;18.558;2023-03-09T03:33:35;52.90;;;22.50;;
42912;SDS011;50720;54.324;18.558;2023-03-09T03:36:05;58.08;;;25.40;;
42912;SDS011;50720;54.324;18.558;2023-03-09T03:41:05;54.83;;;23.17;;
42912;SDS011;50720;54.324;18.558;2023-03-09T03:43:36;54.97;;;23.23;;
42912;SDS011;50720;54.324;18.558;2023-03-09T03:48:35;62.15;;;24.65;;
42912;SDS011;50720;54.324;18.558;2023-03-09T03:51:05;62.25;;;24.83;;
42912;SDS011;50720;54.324;18.558;2023-03-09T03:53:35;58.92;;;23.95;;
42912;SDS011;50720;54.324;18.558;2023-03-09T03:56:04;56.72;;;25.75;;
42912;SDS011;50720;54.324;18.558;2023-03-09T03:58:34;60.95;;;24.75;;
42912;SDS011;50720;54.324;18.558;2023-03-09T04:03:35;69.50;;;26.50;;
42912;SDS011;50720;54.324;18.558;2023-03-09T04:06:05;66.85;;;26.60;;
42912;SDS011;50720;54.324;18.558;2023-03-09T04:08:35;71.97;;;27.35;;
42912;SDS011;50720;54.324;18.558;2023-03-09T04:11:05;75.82;;;27.80;;
42912;SDS011;50720;54.324;18.558;2023-03-09T04:16:06;75.20;;;27.50;;
42912;SDS011;50720;54.324;18.558;2023-03-09T04:18:36;71.07;;;26.93;;
42912;SDS011;50720;54.324;18.558;2023-03-09T04:21:06;75.57;;;28.92;;
42912;SDS011;50720;54.324;18.558;2023-03-09T04:23:36;70.40;;;27.75;;
42912;SDS011;50720;54.324;18.558;2023-03-09T04:26:05;70.25;;;27.73;;
42912;SDS011;50720;54.324;18.558;2023-03-09T04:28:35;68.90;;;26.58;;
42912;SDS011;50720;54.324;18.558;2023-03-09T04:31:06;58.40;;;26.73;;
42912;SDS011;50720;54.324;18.558;2023-03-09T04:33:36;61.92;;;24.48;;
42912;SDS011;50720;54.324;18.558;2023-03-09T04:36:09;70.45;;;27.98;;
42912;SDS011;50720;54.324;18.558;2023-03-09T04:38:40;64.53;;;26.55;;
42912;SDS011;50720;54.324;18.558;2023-03-09T04:41:09;69.88;;;30.92;;
42912;SDS011;50720;54.324;18.558;2023-03-09T04:43:41;78.00;;;26.75;;
42912;SDS011;50720;54.324;18.558;2023-03-09T04:46:11;66.03;;;24.55;;
42912;SDS011;50720;54.324;18.558;2023-03-09T04:48:42;63.80;;;27.35;;
42912;SDS011;50720;54.324;18.558;2023-03-09T04:51:11;64.82;;;26.25;;
42912;SDS011;50720;54.324;18.558;2023-03-09T04:53:41;66.20;;;25.63;;
42912;SDS011;50720;54.324;18.558;2023-03-09T04:56:11;60.28;;;24.75;;
42912;SDS011;50720;54.324;18.558;2023-03-09T04:58:42;60.58;;;25.27;;
42912;SDS011;50720;54.324;18.558;2023-03-09T05:01:12;57.05;;;23.08;;
42912;SDS011;50720;54.324;18.558;2023-03-09T05:03:43;62.75;;;24.98;;
42912;SDS011;50720;54.324;18.558;2023-03-09T05:06:13;68.78;;;27.98;;
42912;SDS011;50720;54.324;18.558;2023-03-09T05:08:44;65.38;;;28.00;;
42912;SDS011;50720;54.324;18.558;2023-03-09T05:11:14;61.75;;;24.73;;
42912;SDS011;50720;54.324;18.558;2023-03-09T05:13:45;57.20;;;24.05;;
42912;SDS011;50720;54.324;18.558;2023-03-09T05:18:47;67.65;;;27.45;;
42912;SDS011;50720;54.324;18.558;2023-03-09T05:21:17;79.55;;;32.65;;
42912;SDS011;50720;54.324;18.558;2023-03-09T05:23:47;86.63;;;31.48;;
42912;SDS011;50720;54.324;18.558;2023-03-09T05:26:16;73.90;;;29.08;;
42912;SDS011;50720;54.324;18.558;2023-03-09T05:28:48;64.32;;;26.70;;
42912;SDS011;50720;54.324;18.558;2023-03-09T05:31:18;60.00;;;26.30;;
42912;SDS011;50720;54.324;18.558;2023-03-09T05:33:48;67.95;;;25.90;;
42912;SDS011;50720;54.324;18.558;2023-03-09T05:36:21;62.75;;;24.73;;
42912;SDS011;50720;54.324;18.558;2023-03-09T05:38:52;72.35;;;29.45;;
42912;SDS011;50720;54.324;18.558;2023-03-09T05:41:22;63.70;;;26.77;;
42912;SDS011;50720;54.324;18.558;2023-03-09T05:43:53;62.42;;;25.95;;
42912;SDS011;50720;54.324;18.558;2023-03-09T05:46:23;45.92;;;18.98;;
42912;SDS011;50720;54.324;18.558;2023-03-09T05:48:53;42.73;;;19.70;;
42912;SDS011;50720;54.324;18.558;2023-03-09T05:51:22;64.25;;;23.60;;
42912;SDS011;50720;54.324;18.558;2023-03-09T05:53:52;47.63;;;21.05;;
42912;SDS011;50720;54.324;18.558;2023-03-09T05:56:22;51.47;;;20.77;;
42912;SDS011;50720;54.324;18.558;2023-03-09T05:58:54;66.10;;;26.03;;
42912;SDS011;50720;54.324;18.558;2023-03-09T06:01:24;56.75;;;23.73;;
42912;SDS011;50720;54.324;18.558;2023-03-09T06:03:56;60.17;;;25.92;;
42912;SDS011;50720;54.324;18.558;2023-03-09T06:06:25;37.17;;;16.63;;
42912;SDS011;50720;54.324;18.558;2023-03-09T06:08:55;47.60;;;16.35;;
42912;SDS011;50720;54.324;18.558;2023-03-09T06:11:25;33.45;;;14.88;;
42912;SDS011;50720;54.324;18.558;2023-03-09T06:13:57;41.00;;;17.77;;
42912;SDS011;50720;54.324;18.558;2023-03-09T06:16:26;40.45;;;15.68;;
42912;SDS011;50720;54.324;18.558;2023-03-09T06:18:56;34.78;;;14.65;;
42912;SDS011;50720;54.324;18.558;2023-03-09T06:21:26;27.15;;;12.73;;
42912;SDS011;50720;54.324;18.558;2023-03-09T06:23:56;38.17;;;17.02;;
42912;SDS011;50720;54.324;18.558;2023-03-09T06:26:26;35.03;;;15.13;;
42912;SDS011;50720;54.324;18.558;2023-03-09T06:28:58;25.38;;;13.35;;
42912;SDS011;50720;54.324;18.558;2023-03-09T06:31:27;37.25;;;14.80;;
42912;SDS011;50720;54.324;18.558;2023-03-09T06:33:59;34.78;;;14.10;;
42912;SDS011;50720;54.324;18.558;2023-03-09T06:36:29;34.53;;;14.00;;
42912;SDS011;50720;54.324;18.558;2023-03-09T06:39:00;35.25;;;14.45;;
42912;SDS011;50720;54.324;18.558;2023-03-09T06:41:30;35.30;;;14.60;;
42912;SDS011;50720;54.324;18.558;2023-03-09T06:44:02;35.97;;;14.70;;
42912;SDS011;50720;54.324;18.558;2023-03-09T06:46:31;33.65;;;14.10;;
42912;SDS011;50720;54.324;18.558;2023-03-09T06:49:02;29.77;;;12.70;;
42912;SDS011;50720;54.324;18.558;2023-03-09T06:51:32;31.00;;;13.75;;
42912;SDS011;50720;54.324;18.558;2023-03-09T06:54:02;28.08;;;11.13;;
42912;SDS011;50720;54.324;18.558;2023-03-09T06:56:31;21.42;;;9.65;;
42912;SDS011;50720;54.324;18.558;2023-03-09T06:59:03;47.50;;;21.70;;
42912;SDS011;50720;54.324;18.558;2023-03-09T07:01:32;39.22;;;16.90;;
42912;SDS011;50720;54.324;18.558;2023-03-09T07:04:02;21.83;;;8.70;;
42912;SDS011;50720;54.324;18.558;2023-03-09T07:06:32;17.25;;;8.70;;
42912;SDS011;50720;54.324;18.558;2023-03-09T07:09:02;20.90;;;10.48;;
42912;SDS011;50720;54.324;18.558;2023-03-09T07:11:32;26.25;;;12.15;;
42912;SDS011;50720;54.324;18.558;2023-03-09T07:14:03;26.30;;;13.23;;
42912;SDS011;50720;54.324;18.558;2023-03-09T07:16:32;27.95;;;11.63;;
42912;SDS011;50720;54.324;18.558;2023-03-09T07:19:03;31.83;;;12.02;;
42912;SDS011;50720;54.324;18.558;2023-03-09T07:21:32;17.02;;;7.82;;
42912;SDS011;50720;54.324;18.558;2023-03-09T07:24:02;23.08;;;9.93;;
42912;SDS011;50720;54.324;18.558;2023-03-09T07:26:32;26.60;;;13.27;;
42912;SDS011;50720;54.324;18.558;2023-03-09T07:29:03;25.25;;;12.27;;
42912;SDS011;50720;54.324;18.558;2023-03-09T07:34:02;18.58;;;7.65;;
42912;SDS011;50720;54.324;18.558;2023-03-09T07:36:31;18.25;;;7.25;;
42912;SDS011;50720;54.324;18.558;2023-03-09T07:39:01;12.48;;;6.85;;
42912;SDS011;50720;54.324;18.558;2023-03-09T07:41:31;20.80;;;11.45;;
42912;SDS011;50720;54.324;18.558;2023-03-09T07:44:00;7.63;;;3.90;;
42912;SDS011;50720;54.324;18.558;2023-03-09T07:49:01;13.10;;;4.70;;
42912;SDS011;50720;54.324;18.558;2023-03-09T07:51:31;7.13;;;3.33;;
42912;SDS011;50720;54.324;18.558;2023-03-09T07:54:01;9.27;;;3.87;;
42912;SDS011;50720;54.324;18.558;2023-03-09T07:56:33;8.27;;;3.75;;
42912;SDS011;50720;54.324;18.558;2023-03-09T07:59:04;11.65;;;5.03;;
42912;SDS011;50720;54.324;18.558;2023-03-09T08:04:04;9.07;;;4.28;;
42912;SDS011;50720;54.324;18.558;2023-03-09T08:06:35;8.48;;;4.80;;
42912;SDS011;50720;54.324;18.558;2023-03-09T08:09:07;10.88;;;3.80;;
42912;SDS011;50720;54.324;18.558;2023-03-09T08:11:39;9.73;;;3.58;;
42912;SDS011;50720;54.324;18.558;2023-03-09T08:14:13;8.40;;;3.05;;
42912;SDS011;50720;54.324;18.558;2023-03-09T08:16:42;6.80;;;3.05;;
42912;SDS011;50720;54.324;18.558;2023-03-09T08:19:12;7.07;;;2.70;;
42912;SDS011;50720;54.324;18.558;2023-03-09T08:21:47;8.95;;;3.47;;
42912;SDS011;50720;54.324;18.558;2023-03-09T08:24:17;9.23;;;3.90;;
42912;SDS011;50720;54.324;18.558;2023-03-09T08:26:46;4.20;;;2.10;;
42912;SDS011;50720;54.324;18.558;2023-03-09T08:29:18;5.07;;;2.10;;
42912;SDS011;50720;54.324;18.558;2023-03-09T08:34:17;6.75;;;2.38;;
42912;SDS011;50720;54.324;18.558;2023-03-09T08:36:47;6.60;;;3.00;;
42912;SDS011;50720;54.324;18.558;2023-03-09T08:39:16;5.22;;;1.73;;
42912;SDS011;50720;54.324;18.558;2023-03-09T08:41:46;6.55;;;2.47;;
42912;SDS011;50720;54.324;18.558;2023-03-09T08:44:15;4.82;;;2.50;;
42912;SDS011;50720;54.324;18.558;2023-03-09T08:46:47;5.85;;;3.17;;
42912;SDS011;50720;54.324;18.558;2023-03-09T08:49:17;6.30;;;3.33;;
42912;SDS011;50720;54.324;18.558;2023-03-09T08:51:46;7.22;;;3.10;;
42912;SDS011;50720;54.324;18.558;2023-03-09T08:54:17;15.85;;;3.33;;
42912;SDS011;50720;54.324;18.558;2023-03-09T08:56:47;5.13;;;2.88;;
42912;SDS011;50720;54.324;18.558;2023-03-09T08:59:19;8.27;;;3.50;;
42912;SDS011;50720;54.324;18.558;2023-03-09T09:01:48;7.85;;;2.80;;
42912;SDS011;50720;54.324;18.558;2023-03-09T09:04:18;7.10;;;2.67;;
42912;SDS011;50720;54.324;18.558;2023-03-09T09:06:48;9.70;;;2.95;;
42912;SDS011;50720;54.324;18.558;2023-03-09T09:09:18;8.95;;;3.45;;
42912;SDS011;50720;54.324;18.558;2023-03-09T09:11:48;10.90;;;3.80;;
42912;SDS011;50720;54.324;18.558;2023-03-09T09:14:20;6.27;;;2.93;;
42912;SDS011;50720;54.324;18.558;2023-03-09T09:19:20;9.70;;;3.33;;
42912;SDS011;50720;54.324;18.558;2023-03-09T09:21:50;6.50;;;3.28;;
42912;SDS011;50720;54.324;18.558;2023-03-09T09:24:22;7.53;;;3.50;;
42912;SDS011;50720;54.324;18.558;2023-03-09T09:26:53;8.43;;;3.75;;
42912;SDS011;50720;54.324;18.558;2023-03-09T09:29:25;6.65;;;3.40;;
42912;SDS011;50720;54.324;18.558;2023-03-09T09:31:55;8.30;;;3.67;;
42912;SDS011;50720;54.324;18.558;2023-03-09T09:34:25;6.63;;;3.00;;
42912;SDS011;50720;54.324;18.558;2023-03-09T09:36:58;11.05;;;3.75;;
42912;SDS011;50720;54.324;18.558;2023-03-09T09:39:28;10.45;;;3.30;;
42912;SDS011;50720;54.324;18.558;2023-03-09T09:44:33;11.93;;;4.90;;
42912;SDS011;50720;54.324;18.558;2023-03-09T09:47:08;5.30;;;3.25;;
42912;SDS011;50720;54.324;18.558;2023-03-09T09:49:43;7.95;;;3.90;;
42912;SDS011;50720;54.324;18.558;2023-03-09T09:52:26;6.65;;;2.60;;
42912;SDS011;50720;54.324;18.558;2023-03-09T09:55:06;5.90;;;2.88;;
42912;SDS011;50720;54.324;18.558;2023-03-09T09:57:45;8.48;;;3.45;;
42912;SDS011;50720;54.324;18.558;2023-03-09T10:00:19;9.65;;;4.15;;
42912;SDS011;50720;54.324;18.558;2023-03-09T10:02:55;10.18;;;5.10;;
42912;SDS011;50720;54.324;18.558;2023-03-09T10:05:34;7.65;;;3.55;;
42912;SDS011;50720;54.324;18.558;2023-03-09T10:08:20;6.30;;;2.80;;
42912;SDS011;50720;54.324;18.558;2023-03-09T10:10:53;11.27;;;3.25;;
42912;SDS011;50720;54.324;18.558;2023-03-09T10:13:28;7.13;;;3.20;;
42912;SDS011;50720;54.324;18.558;2023-03-09T10:16:05;5.28;;;3.00;;
42912;SDS011;50720;54.324;18.558;2023-03-09T10:18:42;8.25;;;3.22;;
42912;SDS011;50720;54.324;18.558;2023-03-09T10:21:18;13.32;;;5.47;;
42912;SDS011;50720;54.324;18.558;2023-03-09T10:23:53;5.88;;;3.63;;
42912;SDS011;50720;54.324;18.558;2023-03-09T10:26:29;6.10;;;2.95;;
42912;SDS011;50720;54.324;18.558;2023-03-09T10:29:10;4.72;;;1.77;;
42912;SDS011;50720;54.324;18.558;2023-03-09T10:31:50;5.85;;;2.03;;
42912;SDS011;50720;54.324;18.558;2023-03-09T10:34:25;4.55;;;2.80;;
42912;SDS011;50720;54.324;18.558;2023-03-09T10:36:57;3.20;;;2.08;;
42912;SDS011;50720;54.324;18.558;2023-03-09T10:39:31;7.22;;;2.22;;
42912;SDS011;50720;54.324;18.558;2023-03-09T10:42:16;4.82;;;2.10;;
42912;SDS011;50720;54.324;18.558;2023-03-09T10:45:01;5.88;;;1.90;;
42912;SDS011;50720;54.324;18.558;2023-03-09T10:47:55;4.80;;;1.80;;
42912;SDS011;50720;54.324;18.558;2023-03-09T10:50:27;6.55;;;1.75;;
42912;SDS011;50720;54.324;18.558;2023-03-09T10:53:14;5.32;;;1.98;;
42912;SDS011;50720;54.324;18.558;2023-03-09T10:55:52;2.13;;;1.85;;
42912;SDS011;50720;54.324;18.558;2023-03-09T11:01:03;4.60;;;1.90;;
42912;SDS011;50720;54.324;18.558;2023-03-09T11:03:47;3.70;;;1.48;;
42912;SDS011;50720;54.324;18.558;2023-03-09T11:06:30;1.35;;;0.63;;
42912;SDS011;50720;54.324;18.558;2023-03-09T11:09:11;1.80;;;0.60;;
42912;SDS011;50720;54.324;18.558;2023-03-09T11:11:43;1.97;;;0.83;;
42912;SDS011;50720;54.324;18.558;2023-03-09T11:14:22;1.45;;;0.60;;
42912;SDS011;50720;54.324;18.558;2023-03-09T11:16:54;1.85;;;0.77;;
42912;SDS011;50720;54.324;18.558;2023-03-09T11:19:27;2.88;;;0.57;;
42912;SDS011;50720;54.324;18.558;2023-03-09T11:22:04;1.45;;;0.90;;
42912;SDS011;50720;54.324;18.558;2023-03-09T11:24:39;3.22;;;0.80;;
42912;SDS011;50720;54.324;18.558;2023-03-09T11:27:14;3.42;;;0.60;;
42912;SDS011;50720;54.324;18.558;2023-03-09T11:29:50;1.98;;;0.70;;
42912;SDS011;50720;54.324;18.558;2023-03-09T11:32:25;0.85;;;0.50;;
42912;SDS011;50720;54.324;18.558;2023-03-09T11:34:57;2.28;;;0.82;;
42912;SDS011;50720;54.324;18.558;2023-03-09T11:37:31;2.35;;;0.80;;
42912;SDS011;50720;54.324;18.558;2023-03-09T11:40:09;1.88;;;0.47;;
42912;SDS011;50720;54.324;18.558;2023-03-09T11:42:43;5.55;;;1.27;;
42912;SDS011;50720;54.324;18.558;2023-03-09T11:45:17;2.38;;;0.52;;
42912;SDS011;50720;54.324;18.558;2023-03-09T11:47:49;2.10;;;1.05;;
42912;SDS011;50720;54.324;18.558;2023-03-09T11:50:26;2.22;;;0.70;;
42912;SDS011;50720;54.324;18.558;2023-03-09T11:52:59;2.03;;;0.73;;
42912;SDS011;50720;54.324;18.558;2023-03-09T11:55:32;2.30;;;0.63;;
42912;SDS011;50720;54.324;18.558;2023-03-09T11:58:05;0.57;;;0.40;;
42912;SDS011;50720;54.324;18.558;2023-03-09T12:00:43;0.63;;;0.50;;
42912;SDS011;50720;54.324;18.558;2023-03-09T12:03:15;1.92;;;0.57;;
42912;SDS011;50720;54.324;18.558;2023-03-09T12:05:50;3.00;;;0.60;;
42912;SDS011;50720;54.324;18.558;2023-03-09T12:08:24;6.72;;;0.63;;
42912;SDS011;50720;54.324;18.558;2023-03-09T12:11:01;1.30;;;0.45;;
42912;SDS011;50720;54.324;18.558;2023-03-09T12:13:36;3.50;;;0.30;;
42912;SDS011;50720;54.324;18.558;2023-03-09T12:16:10;1.55;;;0.82;;
42912;SDS011;50720;54.324;18.558;2023-03-09T12:18:45;4.45;;;0.60;;
42912;SDS011;50720;54.324;18.558;2023-03-09T12:21:28;2.90;;;0.70;;
42912;SDS011;50720;54.324;18.558;2023-03-09T12:24:02;8.68;;;1.48;;
42912;SDS011;50720;54.324;18.558;2023-03-09T12:26:55;0.75;;;0.50;;
42912;SDS011;50720;54.324;18.558;2023-03-09T12:29:27;5.05;;;0.60;;
42912;SDS011;50720;54.324;18.558;2023-03-09T12:32:19;3.13;;;0.52;;
42912;SDS011;50720;54.324;18.558;2023-03-09T12:35:04;3.50;;;0.80;;
42912;SDS011;50720;54.324;18.558;2023-03-09T12:37:55;2.95;;;0.80;;
42912;SDS011;50720;54.324;18.558;2023-03-09T12:40:33;4.93;;;0.88;;
42912;SDS011;50720;54.324;18.558;2023-03-09T12:49:17;2.30;;;0.65;;
42912;SDS011;50720;54.324;18.558;2023-03-09T12:52:03;1.88;;;0.70;;
42912;SDS011;50720;54.324;18.558;2023-03-09T12:55:09;2.80;;;0.65;;
42912;SDS011;50720;54.324;18.558;2023-03-09T12:57:44;6.03;;;1.45;;
42912;SDS011;50720;54.324;18.558;2023-03-09T13:00:25;5.65;;;1.33;;
42912;SDS011;50720;54.324;18.558;2023-03-09T13:02:59;8.20;;;1.52;;
42912;SDS011;50720;54.324;18.558;2023-03-09T13:05:40;1.45;;;1.02;;
42912;SDS011;50720;54.324;18.558;2023-03-09T13:14:11;1.67;;;1.00;;
42912;SDS011;50720;54.324;18.558;2023-03-09T13:19:39;2.25;;;0.82;;
42912;SDS011;50720;54.324;18.558;2023-03-09T13:22:18;2.38;;;0.60;;
42912;SDS011;50720;54.324;18.558;2023-03-09T13:24:49;3.50;;;0.52;;
42912;SDS011;50720;54.324;18.558;2023-03-09T13:27:27;3.20;;;0.80;;
42912;SDS011;50720;54.324;18.558;2023-03-09T13:30:12;1.65;;;0.50;;
42912;SDS011;50720;54.324;18.558;2023-03-09T13:32:48;0.85;;;0.40;;
42912;SDS011;50720;54.324;18.558;2023-03-09T13:35:30;2.70;;;0.68;;
42912;SDS011;50720;54.324;18.558;2023-03-09T13:38:04;4.78;;;0.70;;
42912;SDS011;50720;54.324;18.558;2023-03-09T13:40:47;2.58;;;0.77;;
42912;SDS011;50720;54.324;18.558;2023-03-09T13:43:21;3.30;;;1.05;;
42912;SDS011;50720;54.324;18.558;2023-03-09T13:45:54;1.85;;;0.90;;
42912;SDS011;50720;54.324;18.558;2023-03-09T13:48:46;3.53;;;0.82;;
42912;SDS011;50720;54.324;18.558;2023-03-09T13:51:26;3.67;;;0.85;;
42912;SDS011;50720;54.324;18.558;2023-03-09T13:54:22;3.28;;;0.68;;
42912;SDS011;50720;54.324;18.558;2023-03-09T13:57:01;6.82;;;1.40;;
42912;SDS011;50720;54.324;18.558;2023-03-09T13:59:41;2.78;;;0.60;;
42912;SDS011;50720;54.324;18.558;2023-03-09T14:02:18;3.67;;;0.65;;
42912;SDS011;50720;54.324;18.558;2023-03-09T14:04:49;1.23;;;0.60;;
42912;SDS011;50720;54.324;18.558;2023-03-09T14:07:49;3.13;;;1.08;;
42912;SDS011;50720;54.324;18.558;2023-03-09T14:10:23;2.85;;;0.68;;
42912;SDS011;50720;54.324;18.558;2023-03-09T14:12:56;6.07;;;1.50;;
42912;SDS011;50720;54.324;18.558;2023-03-09T14:15:31;3.38;;;0.80;;
42912;SDS011;50720;54.324;18.558;2023-03-09T14:18:02;5.07;;;1.38;;
42912;SDS011;50720;54.324;18.558;2023-03-09T14:20:33;3.47;;;1.00;;
42912;SDS011;50720;54.324;18.558;2023-03-09T14:23:16;2.03;;;0.88;;
42912;SDS011;50720;54.324;18.558;2023-03-09T14:25:57;1.50;;;1.05;;
42912;SDS011;50720;54.324;18.558;2023-03-09T14:28:28;2.03;;;0.95;;
42912;SDS011;50720;54.324;18.558;2023-03-09T14:31:13;3.70;;;1.48;;
42912;SDS011;50720;54.324;18.558;2023-03-09T14:33:58;3.45;;;0.80;;
42912;SDS011;50720;54.324;18.558;2023-03-09T14:36:33;5.93;;;1.50;;
42912;SDS011;50720;54.324;18.558;2023-03-09T14:39:18;2.53;;;0.95;;
42912;SDS011;50720;54.324;18.558;2023-03-09T14:44:45;4.70;;;1.25;;
42912;SDS011;50720;54.324;18.558;2023-03-09T14:47:28;2.90;;;0.95;;
42912;SDS011;50720;54.324;18.558;2023-03-09T14:49:57;7.32;;;1.58;;
42912;SDS011;50720;54.324;18.558;2023-03-09T14:52:27;3.05;;;1.05;;
42912;SDS011;50720;54.324;18.558;2023-03-09T14:54:59;6.38;;;1.13;;
42912;SDS011;50720;54.324;18.558;2023-03-09T14:57:29;3.65;;;1.13;;
42912;SDS011;50720;54.324;18.558;2023-03-09T14:59:59;3.55;;;0.93;;
42912;SDS011;50720;54.324;18.558;2023-03-09T15:02:30;3.63;;;1.23;;
42912;SDS011;50720;54.324;18.558;2023-03-09T15:05:01;3.95;;;1.63;;
42912;SDS011;50720;54.324;18.558;2023-03-09T15:07:31;3.27;;;1.47;;
42912;SDS011;50720;54.324;18.558;2023-03-09T15:10:01;4.60;;;1.30;;
42912;SDS011;50720;54.324;18.558;2023-03-09T15:12:31;4.75;;;1.40;;
42912;SDS011;50720;54.324;18.558;2023-03-09T15:15:00;2.00;;;0.90;;
42912;SDS011;50720;54.324;18.558;2023-03-09T15:17:32;3.00;;;1.13;;
42912;SDS011;50720;54.324;18.558;2023-03-09T15:20:02;6.97;;;1.85;;
42912;SDS011;50720;54.324;18.558;2023-03-09T15:22:32;4.10;;;1.70;;
42912;SDS011;50720;54.324;18.558;2023-03-09T15:25:01;4.68;;;1.63;;
42912;SDS011;50720;54.324;18.558;2023-03-09T15:27:31;4.10;;;1.52;;
42912;SDS011;50720;54.324;18.558;2023-03-09T15:30:01;3.95;;;1.70;;
42912;SDS011;50720;54.324;18.558;2023-03-09T15:32:33;4.93;;;2.95;;
42912;SDS011;50720;54.324;18.558;2023-03-09T15:35:03;2.65;;;1.77;;
42912;SDS011;50720;54.324;18.558;2023-03-09T15:37:33;5.45;;;1.40;;
42912;SDS011;50720;54.324;18.558;2023-03-09T15:40:04;2.38;;;1.25;;
42912;SDS011;50720;54.324;18.558;2023-03-09T15:42:36;3.13;;;1.48;;
42912;SDS011;50720;54.324;18.558;2023-03-09T15:45:07;10.25;;;2.67;;
42912;SDS011;50720;54.324;18.558;2023-03-09T15:47:40;4.88;;;1.98;;
42912;SDS011;50720;54.324;18.558;2023-03-09T15:50:10;6.85;;;2.10;;
42912;SDS011;50720;54.324;18.558;2023-03-09T15:52:41;15.18;;;2.65;;